sensor_id;sensor_type;location;lat;lon;timestamp;temperature;humidity
19044;DHT22;9654;52.302;8.120;2022-11-20T00:01:09;-5.30;99.90
19044;DHT22;9654;52.302;8.120;2022-11-20T00:03:36;-5.20;99.90
19044;DHT22;9654;52.302;8.120;2022-11-20T00:06:05;-5.10;99.90
19044;DHT22;9654;52.302;8.120;2022-11-20T00:08:32;-5.00;99.90
19044;DHT22;9654;52.302;8.120;2022-11-20T00:11:04;-5.00;99.90
19044;DHT22;9654;52.302;8.120;2022-11-20T00:13:31;-5.10;99.90
19044;DHT22;9654;52.302;8.120;2022-11-20T00:15:58;-5.10;99.90
19044;DHT22;9654;52.302;8.120;2022-11-20T00:18:25;-5.10;99.90
19044;DHT22;9654;52.302;8.120;2022-11-20T00:20:52;-5.10;99.90
19044;DHT22;9654;52.302;8.120;2022-11-20T00:23:18;-5.20;99.90
19044;DHT22;9654;52.302;8.120;2022-11-20T00:25:45;-5.20;99.90
19044;DHT22;9654;52.302;8.120;2022-11-20T00:28:13;-5.30;99.90
19044;DHT22;9654;52.302;8.120;2022-11-20T00:30:40;-5.50;99.90
19044;DHT22;9654;52.302;8.120;2022-11-20T00:33:07;-5.60;99.90
19044;DHT22;9654;52.302;8.120;2022-11-20T00:35:34;-5.60;99.90
19044;DHT22;9654;52.302;8.120;2022-11-20T00:38:00;-5.60;99.90
19044;DHT22;9654;52.302;8.120;2022-11-20T00:40:27;-5.70;99.90
19044;DHT22;9654;52.302;8.120;2022-11-20T00:42:54;-5.80;99.90
19044;DHT22;9654;52.302;8.120;2022-11-20T00:45:22;-5.80;99.90
19044;DHT22;9654;52.302;8.120;2022-11-20T00:47:49;-5.80;99.90
19044;DHT22;9654;52.302;8.120;2022-11-20T00:50:16;-5.70;99.90
19044;DHT22;9654;52.302;8.120;2022-11-20T00:52:42;-5.80;99.90
19044;DHT22;9654;52.302;8.120;2022-11-20T00:55:09;-5.70;99.90
19044;DHT22;9654;52.302;8.120;2022-11-20T00:57:36;-5.70;99.90
19044;DHT22;9654;52.302;8.120;2022-11-20T01:00:03;-5.60;99.90
19044;DHT22;9654;52.302;8.120;2022-11-20T01:02:32;-5.70;99.90
19044;DHT22;9654;52.302;8.120;2022-11-20T01:04:58;-5.60;99.90
19044;DHT22;9654;52.302;8.120;2022-11-20T01:07:25;-5.60;99.90
19044;DHT22;9654;52.302;8.120;2022-11-20T01:09:52;-5.60;99.90
19044;DHT22;9654;52.302;8.120;2022-11-20T01:12:19;-5.60;99.90
19044;DHT22;9654;52.302;8.120;2022-11-20T01:14:47;-5.60;99.90
19044;DHT22;9654;52.302;8.120;2022-11-20T01:17:13;-5.60;99.90
19044;DHT22;9654;52.302;8.120;2022-11-20T01:19:42;-5.60;99.90
19044;DHT22;9654;52.302;8.120;2022-11-20T01:22:09;-5.60;99.90
19044;DHT22;9654;52.302;8.120;2022-11-20T01:24:36;-5.70;99.90
19044;DHT22;9654;52.302;8.120;2022-11-20T01:27:02;-5.70;99.90
19044;DHT22;9654;52.302;8.120;2022-11-20T01:29:29;-5.90;99.90
19044;DHT22;9654;52.302;8.120;2022-11-20T01:31:56;-5.90;99.90
19044;DHT22;9654;52.302;8.120;2022-11-20T01:34:23;-5.90;99.90
19044;DHT22;9654;52.302;8.120;2022-11-20T01:36:52;-5.90;99.90
19044;DHT22;9654;52.302;8.120;2022-11-20T01:39:21;-6.00;99.90
19044;DHT22;9654;52.302;8.120;2022-11-20T01:41:49;-5.90;99.90
19044;DHT22;9654;52.302;8.120;2022-11-20T01:44:49;-5.90;99.90
19044;DHT22;9654;52.302;8.120;2022-11-20T01:47:17;-5.90;99.90
19044;DHT22;9654;52.302;8.120;2022-11-20T01:49:49;-5.90;99.90
19044;DHT22;9654;52.302;8.120;2022-11-20T01:52:21;-6.00;99.90
19044;DHT22;9654;52.302;8.120;2022-11-20T01:54:53;-6.00;99.90
19044;DHT22;9654;52.302;8.120;2022-11-20T01:57:22;-6.10;99.90
19044;DHT22;9654;52.302;8.120;2022-11-20T01:59:59;-6.10;99.90
19044;DHT22;9654;52.302;8.120;2022-11-20T02:02:26;-6.20;99.90
19044;DHT22;9654;52.302;8.120;2022-11-20T02:04:56;-6.10;99.90
19044;DHT22;9654;52.302;8.120;2022-11-20T02:07:28;-6.10;99.90
19044;DHT22;9654;52.302;8.120;2022-11-20T02:09:55;-6.10;99.90
19044;DHT22;9654;52.302;8.120;2022-11-20T02:12:22;-6.00;99.90
19044;DHT22;9654;52.302;8.120;2022-11-20T02:15:07;-6.00;99.90
19044;DHT22;9654;52.302;8.120;2022-11-20T02:17:34;-6.00;99.90
19044;DHT22;9654;52.302;8.120;2022-11-20T02:20:01;-5.90;99.90
19044;DHT22;9654;52.302;8.120;2022-11-20T02:22:33;-5.90;99.90
19044;DHT22;9654;52.302;8.120;2022-11-20T02:25:04;-5.90;99.90
19044;DHT22;9654;52.302;8.120;2022-11-20T02:27:32;-6.00;99.90
19044;DHT22;9654;52.302;8.120;2022-11-20T02:30:01;-6.00;99.90
19044;DHT22;9654;52.302;8.120;2022-11-20T02:32:31;-6.10;99.90
19044;DHT22;9654;52.302;8.120;2022-11-20T02:35:06;-6.10;99.90
19044;DHT22;9654;52.302;8.120;2022-11-20T02:37:36;-6.20;99.90
19044;DHT22;9654;52.302;8.120;2022-11-20T02:40:06;-6.30;99.90
19044;DHT22;9654;52.302;8.120;2022-11-20T02:42:33;-6.40;99.90
19044;DHT22;9654;52.302;8.120;2022-11-20T02:45:00;-6.40;99.90
19044;DHT22;9654;52.302;8.120;2022-11-20T02:47:26;-6.40;99.90
19044;DHT22;9654;52.302;8.120;2022-11-20T02:49:53;-6.30;99.90
19044;DHT22;9654;52.302;8.120;2022-11-20T02:52:20;-6.20;99.90
19044;DHT22;9654;52.302;8.120;2022-11-20T02:54:46;-6.10;99.90
19044;DHT22;9654;52.302;8.120;2022-11-20T02:57:15;-6.00;99.90
19044;DHT22;9654;52.302;8.120;2022-11-20T02:59:41;-6.00;99.90
19044;DHT22;9654;52.302;8.120;2022-11-20T03:02:08;-6.00;99.90
19044;DHT22;9654;52.302;8.120;2022-11-20T03:04:35;-5.90;99.90
19044;DHT22;9654;52.302;8.120;2022-11-20T03:07:02;-5.90;99.90
19044;DHT22;9654;52.302;8.120;2022-11-20T03:09:29;-6.00;99.90
19044;DHT22;9654;52.302;8.120;2022-11-20T03:11:56;-5.90;99.90
19044;DHT22;9654;52.302;8.120;2022-11-20T03:14:24;-5.90;99.90
19044;DHT22;9654;52.302;8.120;2022-11-20T03:16:51;-5.90;99.90
19044;DHT22;9654;52.302;8.120;2022-11-20T03:19:17;-6.00;99.90
19044;DHT22;9654;52.302;8.120;2022-11-20T03:21:44;-6.10;99.90
19044;DHT22;9654;52.302;8.120;2022-11-20T03:24:11;-6.10;99.90
19044;DHT22;9654;52.302;8.120;2022-11-20T03:26:39;-6.20;99.90
19044;DHT22;9654;52.302;8.120;2022-11-20T03:29:06;-6.20;99.90
19044;DHT22;9654;52.302;8.120;2022-11-20T03:31:35;-6.30;99.90
19044;DHT22;9654;52.302;8.120;2022-11-20T03:34:03;-6.30;99.90
19044;DHT22;9654;52.302;8.120;2022-11-20T03:36:30;-6.30;99.90
19044;DHT22;9654;52.302;8.120;2022-11-20T03:38:57;-6.30;99.90
19044;DHT22;9654;52.302;8.120;2022-11-20T03:41:27;-6.30;99.90
19044;DHT22;9654;52.302;8.120;2022-11-20T03:43:55;-6.30;99.90
19044;DHT22;9654;52.302;8.120;2022-11-20T03:46:23;-6.30;99.90
19044;DHT22;9654;52.302;8.120;2022-11-20T03:48:52;-6.40;99.90
19044;DHT22;9654;52.302;8.120;2022-11-20T03:51:20;-6.40;99.90
19044;DHT22;9654;52.302;8.120;2022-11-20T03:53:49;-6.40;99.90
19044;DHT22;9654;52.302;8.120;2022-11-20T03:56:17;-6.40;99.90
19044;DHT22;9654;52.302;8.120;2022-11-20T03:58:45;-6.50;99.90
19044;DHT22;9654;52.302;8.120;2022-11-20T04:01:13;-6.50;99.90
19044;DHT22;9654;52.302;8.120;2022-11-20T04:03:42;-6.50;99.90
19044;DHT22;9654;52.302;8.120;2022-11-20T04:06:13;-6.50;99.90
19044;DHT22;9654;52.302;8.120;2022-11-20T04:08:40;-6.60;99.90
19044;DHT22;9654;52.302;8.120;2022-11-20T04:11:11;-6.70;99.90
19044;DHT22;9654;52.302;8.120;2022-11-20T04:13:39;-6.70;99.90
19044;DHT22;9654;52.302;8.120;2022-11-20T04:16:07;-6.80;99.90
19044;DHT22;9654;52.302;8.120;2022-11-20T04:18:34;-6.80;99.90
19044;DHT22;9654;52.302;8.120;2022-11-20T04:21:01;-6.80;99.90
19044;DHT22;9654;52.302;8.120;2022-11-20T04:23:30;-6.80;99.90
19044;DHT22;9654;52.302;8.120;2022-11-20T04:26:01;-6.80;99.90
19044;DHT22;9654;52.302;8.120;2022-11-20T04:28:28;-6.80;99.90
19044;DHT22;9654;52.302;8.120;2022-11-20T04:31:01;-6.70;99.90
19044;DHT22;9654;52.302;8.120;2022-11-20T04:33:28;-6.60;99.90
19044;DHT22;9654;52.302;8.120;2022-11-20T04:36:00;-6.60;99.90
19044;DHT22;9654;52.302;8.120;2022-11-20T04:38:27;-6.60;99.90
19044;DHT22;9654;52.302;8.120;2022-11-20T04:40:57;-6.60;99.90
19044;DHT22;9654;52.302;8.120;2022-11-20T04:43:25;-6.60;99.90
19044;DHT22;9654;52.302;8.120;2022-11-20T04:45:52;-6.70;99.90
19044;DHT22;9654;52.302;8.120;2022-11-20T04:48:19;-6.70;99.90
19044;DHT22;9654;52.302;8.120;2022-11-20T04:50:45;-6.80;99.90
19044;DHT22;9654;52.302;8.120;2022-11-20T04:53:12;-6.90;99.90
19044;DHT22;9654;52.302;8.120;2022-11-20T04:55:39;-6.90;99.90
19044;DHT22;9654;52.302;8.120;2022-11-20T04:58:07;-6.80;99.90
19044;DHT22;9654;52.302;8.120;2022-11-20T05:00:34;-6.70;99.90
19044;DHT22;9654;52.302;8.120;2022-11-20T05:03:01;-6.60;99.90
19044;DHT22;9654;52.302;8.120;2022-11-20T05:05:27;-6.50;99.90
19044;DHT22;9654;52.302;8.120;2022-11-20T05:07:55;-6.50;99.90
19044;DHT22;9654;52.302;8.120;2022-11-20T05:10:22;-6.60;99.90
19044;DHT22;9654;52.302;8.120;2022-11-20T05:12:49;-6.70;99.90
19044;DHT22;9654;52.302;8.120;2022-11-20T05:15:17;-6.70;99.90
19044;DHT22;9654;52.302;8.120;2022-11-20T05:17:47;-6.70;99.90
19044;DHT22;9654;52.302;8.120;2022-11-20T05:20:14;-6.60;99.90
19044;DHT22;9654;52.302;8.120;2022-11-20T05:22:40;-6.60;99.90
19044;DHT22;9654;52.302;8.120;2022-11-20T05:25:07;-6.60;99.90
19044;DHT22;9654;52.302;8.120;2022-11-20T05:27:34;-6.60;99.90
19044;DHT22;9654;52.302;8.120;2022-11-20T05:30:01;-6.60;99.90
19044;DHT22;9654;52.302;8.120;2022-11-20T05:32:29;-6.70;99.90
19044;DHT22;9654;52.302;8.120;2022-11-20T05:34:56;-6.60;99.90
19044;DHT22;9654;52.302;8.120;2022-11-20T05:37:23;-6.60;99.90
19044;DHT22;9654;52.302;8.120;2022-11-20T05:39:49;-6.50;99.90
19044;DHT22;9654;52.302;8.120;2022-11-20T05:42:16;-6.50;99.90
19044;DHT22;9654;52.302;8.120;2022-11-20T05:44:58;-6.40;99.90
19044;DHT22;9654;52.302;8.120;2022-11-20T05:47:26;-6.40;99.90
19044;DHT22;9654;52.302;8.120;2022-11-20T05:49:54;-6.40;99.90
19044;DHT22;9654;52.302;8.120;2022-11-20T05:52:21;-6.30;99.90
19044;DHT22;9654;52.302;8.120;2022-11-20T05:54:48;-6.40;99.90
19044;DHT22;9654;52.302;8.120;2022-11-20T05:57:16;-6.40;99.90
19044;DHT22;9654;52.302;8.120;2022-11-20T05:59:43;-6.40;99.90
19044;DHT22;9654;52.302;8.120;2022-11-20T06:02:10;-6.30;99.90
19044;DHT22;9654;52.302;8.120;2022-11-20T06:04:36;-6.40;99.90
19044;DHT22;9654;52.302;8.120;2022-11-20T06:07:06;-6.40;99.90
19044;DHT22;9654;52.302;8.120;2022-11-20T06:09:34;-6.30;99.90
19044;DHT22;9654;52.302;8.120;2022-11-20T06:12:00;-6.20;99.90
19044;DHT22;9654;52.302;8.120;2022-11-20T06:14:27;-6.20;99.90
19044;DHT22;9654;52.302;8.120;2022-11-20T06:16:54;-6.10;99.90
19044;DHT22;9654;52.302;8.120;2022-11-20T06:19:21;-6.10;99.90
19044;DHT22;9654;52.302;8.120;2022-11-20T06:21:48;-6.10;99.90
19044;DHT22;9654;52.302;8.120;2022-11-20T06:24:17;-6.10;99.90
19044;DHT22;9654;52.302;8.120;2022-11-20T06:26:44;-6.10;99.90
19044;DHT22;9654;52.302;8.120;2022-11-20T06:29:11;-6.10;99.90
19044;DHT22;9654;52.302;8.120;2022-11-20T06:31:37;-6.00;99.90
19044;DHT22;9654;52.302;8.120;2022-11-20T06:34:04;-5.80;99.90
19044;DHT22;9654;52.302;8.120;2022-11-20T06:36:31;-5.70;99.90
19044;DHT22;9654;52.302;8.120;2022-11-20T06:38:59;-5.60;99.90
19044;DHT22;9654;52.302;8.120;2022-11-20T06:41:27;-5.50;99.90
19044;DHT22;9654;52.302;8.120;2022-11-20T06:43:54;-5.50;99.90
19044;DHT22;9654;52.302;8.120;2022-11-20T06:46:21;-5.40;99.90
19044;DHT22;9654;52.302;8.120;2022-11-20T06:48:49;-5.30;99.90
19044;DHT22;9654;52.302;8.120;2022-11-20T06:51:16;-5.30;99.90
19044;DHT22;9654;52.302;8.120;2022-11-20T06:53:43;-5.20;99.90
19044;DHT22;9654;52.302;8.120;2022-11-20T06:56:10;-5.20;99.90
19044;DHT22;9654;52.302;8.120;2022-11-20T06:58:38;-5.10;99.90
19044;DHT22;9654;52.302;8.120;2022-11-20T07:01:06;-5.10;99.90
19044;DHT22;9654;52.302;8.120;2022-11-20T07:03:34;-5.10;99.90
19044;DHT22;9654;52.302;8.120;2022-11-20T07:06:01;-5.10;99.90
19044;DHT22;9654;52.302;8.120;2022-11-20T07:08:29;-5.00;99.90
19044;DHT22;9654;52.302;8.120;2022-11-20T07:10:57;-4.90;99.90
19044;DHT22;9654;52.302;8.120;2022-11-20T07:13:24;-4.80;99.90
19044;DHT22;9654;52.302;8.120;2022-11-20T07:15:52;-4.60;99.90
19044;DHT22;9654;52.302;8.120;2022-11-20T07:18:19;-4.60;99.90
19044;DHT22;9654;52.302;8.120;2022-11-20T07:20:46;-4.50;99.90
19044;DHT22;9654;52.302;8.120;2022-11-20T07:23:13;-4.40;99.90
19044;DHT22;9654;52.302;8.120;2022-11-20T07:25:39;-4.30;99.90
19044;DHT22;9654;52.302;8.120;2022-11-20T07:28:06;-4.20;99.90
19044;DHT22;9654;52.302;8.120;2022-11-20T07:30:33;-4.10;99.90
19044;DHT22;9654;52.302;8.120;2022-11-20T07:33:01;-4.00;99.90
19044;DHT22;9654;52.302;8.120;2022-11-20T07:35:28;-4.00;99.90
19044;DHT22;9654;52.302;8.120;2022-11-20T07:37:55;-3.80;99.90
19044;DHT22;9654;52.302;8.120;2022-11-20T07:40:21;-3.80;99.90
19044;DHT22;9654;52.302;8.120;2022-11-20T07:42:48;-3.70;99.90
19044;DHT22;9654;52.302;8.120;2022-11-20T07:45:15;-3.70;99.90
19044;DHT22;9654;52.302;8.120;2022-11-20T07:47:42;-3.60;99.90
19044;DHT22;9654;52.302;8.120;2022-11-20T07:50:11;-3.60;99.90
19044;DHT22;9654;52.302;8.120;2022-11-20T07:52:38;-3.60;99.90
19044;DHT22;9654;52.302;8.120;2022-11-20T07:55:07;-3.50;99.90
19044;DHT22;9654;52.302;8.120;2022-11-20T07:57:34;-3.40;99.90
19044;DHT22;9654;52.302;8.120;2022-11-20T08:00:01;-3.40;99.90
19044;DHT22;9654;52.302;8.120;2022-11-20T08:02:27;-3.30;99.90
19044;DHT22;9654;52.302;8.120;2022-11-20T08:04:54;-3.20;99.90
19044;DHT22;9654;52.302;8.120;2022-11-20T08:07:22;-3.20;99.90
19044;DHT22;9654;52.302;8.120;2022-11-20T08:09:49;-3.10;99.90
19044;DHT22;9654;52.302;8.120;2022-11-20T08:12:17;-3.10;99.90
19044;DHT22;9654;52.302;8.120;2022-11-20T08:15:03;-3.10;99.90
19044;DHT22;9654;52.302;8.120;2022-11-20T08:17:30;-3.10;99.90
19044;DHT22;9654;52.302;8.120;2022-11-20T08:19:57;-2.90;99.90
19044;DHT22;9654;52.302;8.120;2022-11-20T08:22:25;-2.90;99.90
19044;DHT22;9654;52.302;8.120;2022-11-20T08:24:52;-2.80;99.90
19044;DHT22;9654;52.302;8.120;2022-11-20T08:27:18;-2.70;99.90
19044;DHT22;9654;52.302;8.120;2022-11-20T08:29:45;-2.50;99.90
19044;DHT22;9654;52.302;8.120;2022-11-20T08:32:12;-2.40;99.90
19044;DHT22;9654;52.302;8.120;2022-11-20T08:34:38;-2.30;99.90
19044;DHT22;9654;52.302;8.120;2022-11-20T08:37:05;-2.40;99.90
19044;DHT22;9654;52.302;8.120;2022-11-20T08:39:33;-2.40;99.90
19044;DHT22;9654;52.302;8.120;2022-11-20T08:42:00;-2.30;99.90
19044;DHT22;9654;52.302;8.120;2022-11-20T08:44:27;-2.30;99.90
19044;DHT22;9654;52.302;8.120;2022-11-20T08:46:53;-2.20;99.90
19044;DHT22;9654;52.302;8.120;2022-11-20T08:49:20;-2.10;99.90
19044;DHT22;9654;52.302;8.120;2022-11-20T08:51:47;-2.00;99.90
19044;DHT22;9654;52.302;8.120;2022-11-20T08:54:17;-1.90;99.90
19044;DHT22;9654;52.302;8.120;2022-11-20T08:56:46;-1.90;99.90
19044;DHT22;9654;52.302;8.120;2022-11-20T08:59:13;-1.80;99.90
19044;DHT22;9654;52.302;8.120;2022-11-20T09:01:40;-1.80;99.90
19044;DHT22;9654;52.302;8.120;2022-11-20T09:04:07;-1.80;99.90
19044;DHT22;9654;52.302;8.120;2022-11-20T09:06:33;-1.90;99.90
19044;DHT22;9654;52.302;8.120;2022-11-20T09:09:00;-1.90;99.90
19044;DHT22;9654;52.302;8.120;2022-11-20T09:11:27;-1.80;99.90
19044;DHT22;9654;52.302;8.120;2022-11-20T09:13:55;-1.80;99.90
19044;DHT22;9654;52.302;8.120;2022-11-20T09:16:22;-1.60;99.90
19044;DHT22;9654;52.302;8.120;2022-11-20T09:18:50;-1.50;99.90
19044;DHT22;9654;52.302;8.120;2022-11-20T09:21:16;-1.40;99.90
19044;DHT22;9654;52.302;8.120;2022-11-20T09:23:43;-1.40;99.90
19044;DHT22;9654;52.302;8.120;2022-11-20T09:26:12;-1.40;99.90
19044;DHT22;9654;52.302;8.120;2022-11-20T09:28:39;-1.40;99.90
19044;DHT22;9654;52.302;8.120;2022-11-20T09:31:09;-1.30;99.90
19044;DHT22;9654;52.302;8.120;2022-11-20T09:33:36;-1.30;99.90
19044;DHT22;9654;52.302;8.120;2022-11-20T09:36:03;-1.30;99.90
19044;DHT22;9654;52.302;8.120;2022-11-20T09:38:29;-1.30;99.90
19044;DHT22;9654;52.302;8.120;2022-11-20T09:40:58;-1.30;99.90
19044;DHT22;9654;52.302;8.120;2022-11-20T09:43:32;-1.20;99.90
19044;DHT22;9654;52.302;8.120;2022-11-20T09:46:11;-1.10;99.90
19044;DHT22;9654;52.302;8.120;2022-11-20T09:49:03;-1.00;99.90
19044;DHT22;9654;52.302;8.120;2022-11-20T09:51:41;-0.90;99.90
19044;DHT22;9654;52.302;8.120;2022-11-20T09:54:16;-0.80;99.90
19044;DHT22;9654;52.302;8.120;2022-11-20T09:56:46;-0.70;99.90
19044;DHT22;9654;52.302;8.120;2022-11-20T09:59:28;-0.70;99.90
19044;DHT22;9654;52.302;8.120;2022-11-20T10:01:57;-0.70;99.90
19044;DHT22;9654;52.302;8.120;2022-11-20T10:04:25;-0.60;99.90
19044;DHT22;9654;52.302;8.120;2022-11-20T10:07:00;-0.50;99.90
19044;DHT22;9654;52.302;8.120;2022-11-20T10:09:30;-0.40;99.90
19044;DHT22;9654;52.302;8.120;2022-11-20T10:12:05;-0.30;99.90
19044;DHT22;9654;52.302;8.120;2022-11-20T10:14:43;-0.30;99.90
19044;DHT22;9654;52.302;8.120;2022-11-20T10:17:22;-0.30;99.90
19044;DHT22;9654;52.302;8.120;2022-11-20T10:20:02;-0.20;99.90
19044;DHT22;9654;52.302;8.120;2022-11-20T10:22:44;-0.30;99.90
19044;DHT22;9654;52.302;8.120;2022-11-20T10:25:15;-0.30;99.90
19044;DHT22;9654;52.302;8.120;2022-11-20T10:27:58;-0.30;99.90
19044;DHT22;9654;52.302;8.120;2022-11-20T10:30:29;-0.30;99.90
19044;DHT22;9654;52.302;8.120;2022-11-20T10:33:03;-0.20;99.90
19044;DHT22;9654;52.302;8.120;2022-11-20T10:35:35;0.00;99.90
19044;DHT22;9654;52.302;8.120;2022-11-20T10:38:05;0.00;99.90
19044;DHT22;9654;52.302;8.120;2022-11-20T10:40:37;0.10;99.90
19044;DHT22;9654;52.302;8.120;2022-11-20T10:43:09;0.10;99.90
19044;DHT22;9654;52.302;8.120;2022-11-20T10:45:45;0.20;99.90
19044;DHT22;9654;52.302;8.120;2022-11-20T10:48:20;0.30;99.90
19044;DHT22;9654;52.302;8.120;2022-11-20T10:50:55;0.30;99.90
19044;DHT22;9654;52.302;8.120;2022-11-20T10:53:36;0.40;99.90
19044;DHT22;9654;52.302;8.120;2022-11-20T10:56:05;0.40;99.90
19044;DHT22;9654;52.302;8.120;2022-11-20T10:58:40;0.40;99.90
19044;DHT22;9654;52.302;8.120;2022-11-20T11:01:15;0.40;99.90
19044;DHT22;9654;52.302;8.120;2022-11-20T11:03:44;0.40;99.90
19044;DHT22;9654;52.302;8.120;2022-11-20T11:06:17;0.60;99.90
19044;DHT22;9654;52.302;8.120;2022-11-20T11:08:47;0.70;99.90
19044;DHT22;9654;52.302;8.120;2022-11-20T11:11:21;0.90;99.90
19044;DHT22;9654;52.302;8.120;2022-11-20T11:13:49;1.00;99.90
19044;DHT22;9654;52.302;8.120;2022-11-20T11:16:20;1.00;99.90
19044;DHT22;9654;52.302;8.120;2022-11-20T11:18:48;1.10;99.90
19044;DHT22;9654;52.302;8.120;2022-11-20T11:21:21;1.10;99.90
19044;DHT22;9654;52.302;8.120;2022-11-20T11:23:57;1.10;99.90
19044;DHT22;9654;52.302;8.120;2022-11-20T11:26:24;1.20;99.90
19044;DHT22;9654;52.302;8.120;2022-11-20T11:28:56;1.30;99.90
19044;DHT22;9654;52.302;8.120;2022-11-20T11:31:25;1.50;99.90
19044;DHT22;9654;52.302;8.120;2022-11-20T11:34:04;1.50;99.90
19044;DHT22;9654;52.302;8.120;2022-11-20T11:36:33;1.50;99.90
19044;DHT22;9654;52.302;8.120;2022-11-20T11:39:02;1.60;99.90
19044;DHT22;9654;52.302;8.120;2022-11-20T11:41:32;1.60;99.90
19044;DHT22;9654;52.302;8.120;2022-11-20T11:44:12;1.70;99.90
19044;DHT22;9654;52.302;8.120;2022-11-20T11:46:59;1.80;99.90
19044;DHT22;9654;52.302;8.120;2022-11-20T11:49:27;1.80;99.90
19044;DHT22;9654;52.302;8.120;2022-11-20T11:52:04;1.70;99.90
19044;DHT22;9654;52.302;8.120;2022-11-20T11:54:37;1.70;99.90
19044;DHT22;9654;52.302;8.120;2022-11-20T11:57:11;1.70;99.90
19044;DHT22;9654;52.302;8.120;2022-11-20T11:59:49;1.70;99.90
19044;DHT22;9654;52.302;8.120;2022-11-20T12:02:27;1.60;99.90
19044;DHT22;9654;52.302;8.120;2022-11-20T12:05:01;1.60;99.90
19044;DHT22;9654;52.302;8.120;2022-11-20T12:07:38;1.50;99.90
19044;DHT22;9654;52.302;8.120;2022-11-20T12:10:15;1.40;99.90
19044;DHT22;9654;52.302;8.120;2022-11-20T12:12:45;1.30;99.90
19044;DHT22;9654;52.302;8.120;2022-11-20T12:15:19;1.30;99.90
19044;DHT22;9654;52.302;8.120;2022-11-20T12:17:49;1.40;99.90
19044;DHT22;9654;52.302;8.120;2022-11-20T12:20:17;1.60;99.90
19044;DHT22;9654;52.302;8.120;2022-11-20T12:22:50;1.70;99.90
19044;DHT22;9654;52.302;8.120;2022-11-20T12:25:22;1.80;99.90
19044;DHT22;9654;52.302;8.120;2022-11-20T12:28:24;1.80;99.90
19044;DHT22;9654;52.302;8.120;2022-11-20T12:31:05;1.70;99.90
19044;DHT22;9654;52.302;8.120;2022-11-20T12:33:50;1.60;99.90
19044;DHT22;9654;52.302;8.120;2022-11-20T12:36:30;1.60;99.90
19044;DHT22;9654;52.302;8.120;2022-11-20T12:42:00;1.80;99.90
19044;DHT22;9654;52.302;8.120;2022-11-20T12:45:02;1.90;99.90
19044;DHT22;9654;52.302;8.120;2022-11-20T12:47:46;1.90;99.90
19044;DHT22;9654;52.302;8.120;2022-11-20T12:50:23;2.00;99.90
19044;DHT22;9654;52.302;8.120;2022-11-20T12:52:57;1.90;99.90
19044;DHT22;9654;52.302;8.120;2022-11-20T12:55:33;1.90;99.90
19044;DHT22;9654;52.302;8.120;2022-11-20T12:58:08;1.90;99.90
19044;DHT22;9654;52.302;8.120;2022-11-20T13:00:42;1.90;99.90
19044;DHT22;9654;52.302;8.120;2022-11-20T13:03:31;2.00;99.90
19044;DHT22;9654;52.302;8.120;2022-11-20T13:06:06;2.00;99.90
19044;DHT22;9654;52.302;8.120;2022-11-20T13:08:40;2.00;99.90
19044;DHT22;9654;52.302;8.120;2022-11-20T13:11:12;2.10;99.90
19044;DHT22;9654;52.302;8.120;2022-11-20T13:13:49;2.30;99.90
19044;DHT22;9654;52.302;8.120;2022-11-20T13:16:25;2.40;99.90
19044;DHT22;9654;52.302;8.120;2022-11-20T13:18:54;2.50;99.90
19044;DHT22;9654;52.302;8.120;2022-11-20T13:21:23;2.60;99.90
19044;DHT22;9654;52.302;8.120;2022-11-20T13:24:05;2.70;99.90
19044;DHT22;9654;52.302;8.120;2022-11-20T13:26:32;2.60;99.90
19044;DHT22;9654;52.302;8.120;2022-11-20T13:29:03;2.70;99.90
19044;DHT22;9654;52.302;8.120;2022-11-20T13:31:36;2.70;99.90
19044;DHT22;9654;52.302;8.120;2022-11-20T13:34:06;2.80;99.90
19044;DHT22;9654;52.302;8.120;2022-11-20T13:36:33;2.80;99.90
19044;DHT22;9654;52.302;8.120;2022-11-20T13:39:02;2.70;99.90
19044;DHT22;9654;52.302;8.120;2022-11-20T13:41:31;2.60;99.90
19044;DHT22;9654;52.302;8.120;2022-11-20T13:44:09;2.40;99.90
19044;DHT22;9654;52.302;8.120;2022-11-20T13:46:39;2.50;99.90
19044;DHT22;9654;52.302;8.120;2022-11-20T13:49:14;2.50;99.90
19044;DHT22;9654;52.302;8.120;2022-11-20T13:51:43;2.40;99.90
19044;DHT22;9654;52.302;8.120;2022-11-20T13:54:39;2.30;99.90
19044;DHT22;9654;52.302;8.120;2022-11-20T13:57:21;2.30;99.90
19044;DHT22;9654;52.302;8.120;2022-11-20T13:59:57;2.30;99.90
19044;DHT22;9654;52.302;8.120;2022-11-20T14:02:26;2.30;99.90
19044;DHT22;9654;52.302;8.120;2022-11-20T14:04:56;2.30;99.90
19044;DHT22;9654;52.302;8.120;2022-11-20T14:07:32;2.40;99.90
19044;DHT22;9654;52.302;8.120;2022-11-20T14:10:01;2.40;99.90
19044;DHT22;9654;52.302;8.120;2022-11-20T14:12:30;2.30;99.90
19044;DHT22;9654;52.302;8.120;2022-11-20T14:14:58;2.30;99.90
19044;DHT22;9654;52.302;8.120;2022-11-20T14:17:31;2.30;99.90
19044;DHT22;9654;52.302;8.120;2022-11-20T14:20:01;2.30;99.90
19044;DHT22;9654;52.302;8.120;2022-11-20T14:22:29;2.30;99.90
19044;DHT22;9654;52.302;8.120;2022-11-20T14:25:03;2.30;99.90
19044;DHT22;9654;52.302;8.120;2022-11-20T14:27:33;2.20;99.90
19044;DHT22;9654;52.302;8.120;2022-11-20T14:30:01;2.10;99.90
19044;DHT22;9654;52.302;8.120;2022-11-20T14:32:29;2.00;99.90
19044;DHT22;9654;52.302;8.120;2022-11-20T14:35:01;2.00;99.90
19044;DHT22;9654;52.302;8.120;2022-11-20T14:37:33;1.90;99.90
19044;DHT22;9654;52.302;8.120;2022-11-20T14:40:04;1.80;99.90
19044;DHT22;9654;52.302;8.120;2022-11-20T14:42:33;1.80;99.90
19044;DHT22;9654;52.302;8.120;2022-11-20T14:45:02;1.70;99.90
19044;DHT22;9654;52.302;8.120;2022-11-20T14:47:30;1.70;99.90
19044;DHT22;9654;52.302;8.120;2022-11-20T14:49:58;1.70;99.90
19044;DHT22;9654;52.302;8.120;2022-11-20T14:52:28;1.60;99.90
19044;DHT22;9654;52.302;8.120;2022-11-20T14:54:58;1.50;99.90
19044;DHT22;9654;52.302;8.120;2022-11-20T14:57:27;1.50;99.90
19044;DHT22;9654;52.302;8.120;2022-11-20T15:00:07;1.40;99.90
19044;DHT22;9654;52.302;8.120;2022-11-20T15:02:34;1.40;99.90
19044;DHT22;9654;52.302;8.120;2022-11-20T15:05:01;1.30;99.90
19044;DHT22;9654;52.302;8.120;2022-11-20T15:07:30;1.30;99.90
19044;DHT22;9654;52.302;8.120;2022-11-20T15:10:03;1.30;99.90
19044;DHT22;9654;52.302;8.120;2022-11-20T15:12:30;1.30;99.90
19044;DHT22;9654;52.302;8.120;2022-11-20T15:14:58;1.20;99.90
19044;DHT22;9654;52.302;8.120;2022-11-20T15:17:26;1.20;99.90
19044;DHT22;9654;52.302;8.120;2022-11-20T15:19:53;1.10;99.90
19044;DHT22;9654;52.302;8.120;2022-11-20T15:22:21;1.10;99.90
19044;DHT22;9654;52.302;8.120;2022-11-20T15:24:47;1.10;99.90
19044;DHT22;9654;52.302;8.120;2022-11-20T15:27:14;1.00;99.90
19044;DHT22;9654;52.302;8.120;2022-11-20T15:29:42;1.00;99.90
19044;DHT22;9654;52.302;8.120;2022-11-20T15:32:09;1.00;99.90
19044;DHT22;9654;52.302;8.120;2022-11-20T15:34:37;1.00;99.90
19044;DHT22;9654;52.302;8.120;2022-11-20T15:37:04;0.90;99.90
19044;DHT22;9654;52.302;8.120;2022-11-20T15:39:30;0.90;99.90
19044;DHT22;9654;52.302;8.120;2022-11-20T15:41:57;0.80;99.90
19044;DHT22;9654;52.302;8.120;2022-11-20T15:44:24;0.80;99.90
19044;DHT22;9654;52.302;8.120;2022-11-20T15:46:51;0.80;99.90
19044;DHT22;9654;52.302;8.120;2022-11-20T15:49:18;0.80;99.90
19044;DHT22;9654;52.302;8.120;2022-11-20T15:51:49;0.80;99.90
19044;DHT22;9654;52.302;8.120;2022-11-20T15:54:19;0.80;99.90
19044;DHT22;9654;52.302;8.120;2022-11-20T15:56:47;0.90;99.90
19044;DHT22;9654;52.302;8.120;2022-11-20T15:59:14;0.90;99.90
19044;DHT22;9654;52.302;8.120;2022-11-20T16:01:41;0.90;99.90
19044;DHT22;9654;52.302;8.120;2022-11-20T16:04:10;0.90;99.90
19044;DHT22;9654;52.302;8.120;2022-11-20T16:06:37;0.90;99.90
19044;DHT22;9654;52.302;8.120;2022-11-20T16:09:06;0.90;99.90
19044;DHT22;9654;52.302;8.120;2022-11-20T16:11:33;0.90;99.90